Gano, Texas
Current Conditions -  °F | °C
As of 8:58 AM on Saturday 20 Dec 2014 (Local Time) from KGRK Reporting Station
Overcast Overcast  
Wind Chill: 43°   Ceiling: 1300
Heat Index: 46°   Visibility: 9mi
Dew Point: 44°   Wind: 6mph
Humidity: 90%   Direction: 360°N
Pressure: 30.23"   Gusts: NA
Location:  30.5951°N, 97.1399°W
Report Text: KGRK 201458Z AUTO 36005KT 9SM OVC013 08/06 A3023 RMK AO2 SLP240 T00790064 52014
Loading
Personal Weather Stations






























Interactive Weather Map New forecast layout! Learn more

10-Day Weather Forecast

Advertisements
Track Severe Weather on mobile